Time;durP1;ratioP1;P1;durP2;ratioP2;P2;SDS_P1;SDS_P2;PMS_P1;PMS_P2;Temp;Humidity;BMP_temperature;BMP_pressure;BME280_temperature;BME280_humidity;BME280_pressure;Samples;Min_cycle;Max_cycle;Signal;HPM_P1;HPM_P2
2023/05/17 00:02:22;;;;;;;31.40;7.50;;;;;;;18.91;44.81;101109.19;108083;1268;60258;-96
2023/05/17 00:04:55;;;;;;;33.10;8.50;;;;;;;18.90;44.98;101110.41;108351;1267;72323;-93
2023/05/17 00:07:55;;;;;;;44.60;9.20;;;;;;;18.88;44.97;101113.19;108764;1269;63681;-93
2023/05/17 00:10:31;;;;;;;35.30;8.00;;;;;;;18.88;44.90;101115.55;108609;1259;72673;-94
2023/05/17 00:13:08;;;;;;;38.50;8.30;;;;;;;18.86;44.89;101117.59;108881;1264;60471;-95
2023/05/17 00:15:38;;;;;;;31.70;7.90;;;;;;;18.85;44.85;101115.23;108865;1265;60296;-94
2023/05/17 00:18:09;;;;;;;34.00;8.60;;;;;;;18.82;44.88;101115.79;108953;1264;73803;-94
2023/05/17 00:20:42;;;;;;;27.10;8.20;;;;;;;18.83;45.06;101116.98;108810;1261;63801;-94
2023/05/17 00:23:17;;;;;;;32.30;7.00;;;;;;;18.82;45.13;101118.70;108622;1264;71941;-94
2023/05/17 00:25:45;;;;;;;29.00;6.90;;;;;;;18.80;45.17;101117.27;108958;1263;60869;-95
2023/05/17 00:28:15;;;;;;;25.60;6.70;;;;;;;18.78;45.37;101118.11;108861;1264;60180;-94
2023/05/17 00:30:44;;;;;;;30.50;7.70;;;;;;;18.76;45.37;101121.48;108908;1264;73243;-96
2023/05/17 00:33:21;;;;;;;28.30;6.90;;;;;;;18.74;45.51;101118.41;108777;1264;63905;-94
2023/05/17 00:35:52;;;;;;;20.50;6.30;;;;;;;18.74;45.53;101121.45;108227;1261;72321;-95
2023/05/17 00:38:21;;;;;;;24.30;7.30;;;;;;;18.73;45.49;101124.21;108785;1264;59302;-96
2023/05/17 00:41:00;;;;;;;25.80;8.20;;;;;;;18.71;45.69;101123.13;108864;1264;60183;-95
2023/05/17 00:43:32;;;;;;;16.10;4.50;;;;;;;18.70;45.73;101122.19;108614;1264;73138;-96
2023/05/17 00:46:03;;;;;;;17.30;4.80;;;;;;;18.67;45.63;101116.61;108892;1265;63167;-94
2023/05/17 00:48:32;;;;;;;8.70;3.70;;;;;;;18.67;45.64;101116.10;108922;1264;72723;-95
2023/05/17 00:51:00;;;;;;;10.50;3.90;;;;;;;18.64;45.64;101114.13;108632;1264;60253;-94
2023/05/17 00:53:28;;;;;;;8.80;3.50;;;;;;;18.63;45.57;101116.39;108848;1264;60139;-92
2023/05/17 00:55:55;;;;;;;4.50;2.60;;;;;;;18.61;45.17;101118.14;108536;1264;73156;-95
2023/05/17 00:58:45;;;;;;;8.90;3.90;;;;;;;18.58;44.93;101116.64;108249;1265;63318;-93
2023/05/17 01:01:15;;;;;;;7.30;2.70;;;;;;;18.58;45.50;101117.37;107651;1269;71695;-96
2023/05/17 01:03:46;;;;;;;12.40;3.30;;;;;;;18.55;45.57;101114.61;108392;1264;59838;-93
2023/05/17 01:06:18;;;;;;;6.00;2.90;;;;;;;18.55;45.44;101122.00;108677;1257;60127;-95
2023/05/17 01:09:42;;;;;;;6.70;2.60;;;;;;;18.56;45.66;101123.52;106722;1282;613517;-96
2023/05/17 01:12:42;;;;;;;;;;;;;;;;;;;;;
2023/05/17 01:15:25;;;;;;;5.80;3.10;;;;;;;18.51;45.49;101114.09;108021;1263;59325;-94
2023/05/17 01:18:19;;;;;;;9.20;4.00;;;;;;;18.50;45.44;101120.02;107783;1263;71651;-95
2023/05/17 01:21:29;;;;;;;4.20;2.50;;;;;;;18.45;45.46;101117.02;107459;1263;65169;-95
2023/05/17 01:24:34;;;;;;;9.00;3.20;;;;;;;18.44;45.71;101121.55;107482;1262;1016592;-96
2023/05/17 01:27:08;;;;;;;10.30;3.00;;;;;;;18.40;45.66;101118.48;107149;1273;59518;-95
2023/05/17 01:29:37;;;;;;;5.80;3.00;;;;;;;18.40;45.74;101117.77;108721;1270;60134;-94
2023/05/17 01:32:06;;;;;;;5.80;2.50;;;;;;;18.38;45.96;101114.08;108057;1270;72183;-94
2023/05/17 01:34:35;;;;;;;10.50;3.00;;;;;;;18.37;45.94;101117.73;106566;1269;65211;-94
2023/05/17 01:37:10;;;;;;;6.90;3.30;;;;;;;18.35;45.91;101121.77;106933;1270;72611;-94
2023/05/17 01:40:07;;;;;;;8.20;3.00;;;;;;;18.32;46.07;101116.69;107175;1270;60900;-96
2023/05/17 01:42:57;;;;;;;10.50;3.40;;;;;;;18.28;46.28;101113.02;107779;1270;59862;-95
2023/05/17 01:45:35;;;;;;;10.50;3.60;;;;;;;18.28;46.47;101112.62;107748;1269;73051;-94
2023/05/17 01:48:30;;;;;;;9.00;3.10;;;;;;;18.27;46.65;101115.42;107065;1271;63769;-95
2023/05/17 01:51:03;;;;;;;12.50;4.30;;;;;;;18.24;46.84;101114.73;106717;1276;72489;-95
2023/05/17 01:54:39;;;;;;;21.30;5.50;;;;;;;18.21;47.07;101114.09;108180;1270;59510;-96
2023/05/17 01:58:08;;;;;;;17.00;4.60;;;;;;;18.19;47.43;101116.92;108747;1259;59251;31
2023/05/17 02:00:43;;;;;;;16.00;4.80;;;;;;;18.17;47.56;101119.20;107817;1265;74244;-95
2023/05/17 02:03:19;;;;;;;19.60;5.00;;;;;;;18.16;47.92;101118.23;106927;1265;65159;-95
2023/05/17 02:05:51;;;;;;;22.40;5.30;;;;;;;18.14;48.03;101119.84;107259;1265;70528;-96
2023/05/17 02:08:40;;;;;;;16.70;5.00;;;;;;;18.14;48.42;101121.43;107876;1269;61426;-95
2023/05/17 02:11:44;;;;;;;22.00;5.70;;;;;;;18.12;48.62;101125.11;109045;1260;59480;-95
2023/05/17 02:14:18;;;;;;;13.70;4.40;;;;;;;18.10;48.79;101127.63;108141;1260;73396;-94
2023/05/17 02:17:04;;;;;;;17.00;5.00;;;;;;;18.09;49.02;101131.91;107779;1265;63773;-94
2023/05/17 02:19:34;;;;;;;19.90;4.80;;;;;;;18.06;48.89;101129.89;107268;1260;73603;-96
2023/05/17 02:22:04;;;;;;;20.30;4.60;;;;;;;18.06;49.46;101137.66;107993;1260;60723;-96
2023/05/17 02:25:00;;;;;;;11.30;4.20;;;;;;;18.04;49.20;101140.81;107448;1260;60228;-95
2023/05/17 02:30:33;;;;;;;17.60;4.10;;;;;;;18.01;49.57;101143.59;107423;1260;64050;-96
2023/05/17 02:33:08;;;;;;;15.30;4.00;;;;;;;17.99;49.10;101144.06;106682;1264;73526;-93
2023/05/17 02:35:39;;;;;;;10.80;3.70;;;;;;;17.99;48.84;101152.25;106669;1268;60489;-96
2023/05/17 02:38:10;;;;;;;14.50;3.60;;;;;;;17.98;48.85;101151.42;107450;1260;61117;-92
2023/05/17 02:40:56;;;;;;;16.90;3.60;;;;;;;17.98;48.67;101154.98;108997;1259;72518;-93
2023/05/17 02:43:24;;;;;;;18.40;4.00;;;;;;;17.98;48.66;101158.11;108716;1261;64708;-94
2023/05/17 02:45:52;;;;;;;13.70;4.00;;;;;;;17.97;48.64;101157.84;108208;1259;72560;-95
2023/05/17 02:48:25;;;;;;;23.80;4.20;;;;;;;17.95;48.50;101160.21;106900;1261;61280;-94
2023/05/17 02:50:53;;;;;;;16.10;4.00;;;;;;;17.96;48.75;101164.33;107114;1262;61625;-94
2023/05/17 02:53:21;;;;;;;17.50;4.40;;;;;;;17.96;48.44;101163.64;108631;1260;73826;-93
2023/05/17 02:55:51;;;;;;;14.70;3.90;;;;;;;17.95;48.65;101165.48;107187;1260;64190;-92
2023/05/17 02:58:18;;;;;;;13.20;4.00;;;;;;;17.94;48.92;101164.86;107005;1260;72618;-94
2023/05/17 03:00:47;;;;;;;13.50;3.80;;;;;;;17.93;49.15;101167.98;107667;1264;60382;-94
2023/05/17 03:03:16;;;;;;;13.80;3.80;;;;;;;17.92;49.36;101170.50;108554;1260;60332;-95
2023/05/17 03:06:00;;;;;;;10.70;3.50;;;;;;;17.92;49.08;101181.12;108545;1261;74005;-95
2023/05/17 03:08:44;;;;;;;12.90;3.70;;;;;;;17.91;49.06;101182.97;108651;1259;61908;-94
2023/05/17 03:11:14;;;;;;;14.00;4.60;;;;;;;17.92;49.32;101183.08;108660;1262;72877;-90
2023/05/17 03:13:50;;;;;;;17.40;4.10;;;;;;;17.93;49.29;101183.55;107945;1259;60493;-90
2023/05/17 03:16:23;;;;;;;7.90;2.90;;;;;;;17.94;49.75;101188.36;107529;1264;60298;-93
2023/05/17 03:18:51;;;;;;;12.60;3.40;;;;;;;17.97;50.00;101193.48;106511;1259;72830;-93
2023/05/17 03:21:24;;;;;;;18.80;3.80;;;;;;;17.99;50.09;101193.98;106481;1260;63754;-93
2023/05/17 03:23:52;;;;;;;17.80;4.30;;;;;;;18.02;49.77;101196.56;106489;1260;73485;-96
2023/05/17 03:26:23;;;;;;;15.30;3.90;;;;;;;18.03;49.95;101198.58;107729;1261;60342;-91
2023/05/17 03:29:10;;;;;;;13.00;3.70;;;;;;;18.10;50.07;101202.08;108921;1260;59708;-91
2023/05/17 03:31:40;;;;;;;11.40;3.40;;;;;;;18.14;49.81;101204.93;107731;1260;73254;-94
2023/05/17 03:34:08;;;;;;;8.30;3.10;;;;;;;18.18;50.04;101206.70;108357;1260;63934;-95
2023/05/17 03:36:38;;;;;;;10.50;3.60;;;;;;;18.23;49.36;101207.19;108570;1261;73112;-93
2023/05/17 03:39:06;;;;;;;15.10;2.90;;;;;;;18.28;48.64;101212.16;107046;1260;60718;-94
2023/05/17 03:41:41;;;;;;;8.90;2.90;;;;;;;18.32;49.05;101209.52;107236;1265;61330;-93
2023/05/17 03:44:11;;;;;;;12.90;4.40;;;;;;;18.38;49.14;101210.23;107045;1263;74409;-96
2023/05/17 03:47:01;;;;;;;12.70;4.30;;;;;;;18.46;48.93;101214.17;107602;1262;64842;-94
2023/05/17 03:49:30;;;;;;;11.90;4.30;;;;;;;18.52;48.89;101213.27;107924;1266;72642;-93
2023/05/17 03:51:58;;;;;;;19.70;4.40;;;;;;;18.59;49.16;101223.48;106644;1264;61368;-95
2023/05/17 03:54:26;;;;;;;10.90;4.30;;;;;;;18.65;48.37;101219.95;106668;1266;60530;-92
2023/05/17 03:56:55;;;;;;;13.00;4.40;;;;;;;18.72;48.85;101222.77;107132;1266;72883;-93
2023/05/17 03:59:38;;;;;;;8.50;3.10;;;;;;;18.78;48.45;101224.20;107594;1260;63989;-94
2023/05/17 04:02:18;;;;;;;10.90;2.40;;;;;;;18.87;47.59;101226.48;107108;1261;73663;-94
2023/05/17 04:04:49;;;;;;;9.40;3.30;;;;;;;18.91;46.97;101228.10;107158;1264;59637;-93
2023/05/17 04:07:21;;;;;;;8.90;2.40;;;;;;;18.96;46.87;101225.77;107410;1259;59301;-94
2023/05/17 04:09:53;;;;;;;11.30;2.40;;;;;;;19.02;46.45;101235.52;108400;1260;72949;-93
2023/05/17 04:12:38;;;;;;;8.30;2.20;;;;;;;19.05;46.08;101232.39;108638;1260;63712;-93
2023/05/17 04:15:41;;;;;;;10.70;2.70;;;;;;;19.09;45.78;101238.98;108874;1255;72677;31
2023/05/17 04:18:10;;;;;;;10.80;2.60;;;;;;;19.16;46.46;101241.55;108902;1262;61435;-95
2023/05/17 04:21:08;;;;;;;;;;;;;;;;;;;;;
2023/05/17 04:23:58;;;;;;;10.20;2.60;;;;;;;19.31;45.36;101242.35;108808;1262;74276;-95
2023/05/17 04:26:31;;;;;;;7.80;2.10;;;;;;;19.42;44.85;101245.13;108261;1262;62984;-94
2023/05/17 04:29:05;;;;;;;6.90;1.60;;;;;;;19.52;45.21;101242.52;108814;1262;72525;-93
2023/05/17 04:31:55;;;;;;;10.40;2.10;;;;;;;19.63;44.97;101245.25;108576;1262;60238;-93
2023/05/17 04:34:27;;;;;;;6.00;2.00;;;;;;;19.75;44.21;101247.29;108346;1267;59831;-96
2023/05/17 04:37:15;;;;;;;4.40;1.70;;;;;;;19.85;43.24;101246.17;108528;1264;72791;-94
2023/05/17 04:42:37;;;;;;;2.80;2.10;;;;;;;20.09;43.30;101256.10;91106;1265;71371;-94
2023/05/17 04:45:06;;;;;;;5.50;2.10;;;;;;;20.20;42.86;101259.52;108806;1259;59353;-94
2023/05/17 04:47:58;;;;;;;7.70;2.20;;;;;;;20.34;43.78;101258.80;106354;1291;599789;-95
2023/05/17 04:51:22;;;;;;;6.30;1.90;;;;;;;20.47;43.52;101260.95;108585;1270;61152;-95
2023/05/17 04:54:11;;;;;;;5.30;1.80;;;;;;;20.58;42.40;101265.58;107786;1267;62119;-95
2023/05/17 04:57:04;;;;;;;6.40;2.20;;;;;;;20.70;41.71;101267.64;107838;1267;74118;-94
2023/05/17 04:59:54;;;;;;;5.70;1.70;;;;;;;20.81;41.39;101271.91;108618;1267;64933;-93
2023/05/17 05:02:32;;;;;;;3.10;1.60;;;;;;;20.98;40.82;101271.40;106448;1257;2894964;-94
2023/05/17 05:05:03;;;;;;;3.70;1.90;;;;;;;21.24;40.86;101272.66;108829;1257;59385;-93
2023/05/17 05:07:40;;;;;;;6.30;1.60;;;;;;;21.75;38.92;101270.17;108769;1252;61392;-91
2023/05/17 05:10:31;;;;;;;5.10;1.60;;;;;;;22.41;37.06;101272.70;109275;1253;75349;-95
2023/05/17 05:20:00;;;;;;;3.90;1.80;;;;;;;24.42;33.90;101271.04;102859;1269;61098;-94
2023/05/17 05:23:30;;;;;;;6.80;1.70;;;;;;;25.02;32.52;101278.05;107406;1272;58880;-96
2023/05/17 05:26:10;;;;;;;4.70;1.30;;;;;;;25.47;32.02;101276.24;107338;1271;73098;-96
2023/05/17 05:32:36;;;;;;;5.20;1.20;;;;;;;26.43;29.85;101279.75;108337;1265;72569;-95
2023/05/17 05:57:08;;;;;;;4.10;1.10;;;;;;;27.79;27.26;101290.22;108494;1262;59972;31
2023/05/17 06:00:45;;;;;;;2.70;0.70;;;;;;;28.26;25.29;101284.19;107970;1261;73996;31
2023/05/17 06:20:22;;;;;;;;;;;;;;;;;;;;;
2023/05/17 06:33:34;;;;;;;7.90;2.70;;;;;;;30.89;20.65;101280.34;90732;1270;71788;-94
2023/05/17 06:36:37;;;;;;;10.30;1.70;;;;;;;30.74;20.96;101283.94;105459;1270;62585;-95
2023/05/17 06:39:10;;;;;;;16.80;2.40;;;;;;;30.73;20.98;101287.61;107415;1270;73693;-94
2023/05/17 06:41:51;;;;;;;5.80;1.60;;;;;;;30.62;20.91;101280.77;107696;1264;59557;31
2023/05/17 06:44:53;;;;;;;5.60;0.90;;;;;;;30.60;21.33;101283.36;107951;1269;59039;-95
2023/05/17 06:48:19;;;;;;;6.00;0.80;;;;;;;30.66;21.11;101282.66;106511;1284;599717;-96
2023/05/17 06:51:25;;;;;;;3.50;1.30;;;;;;;30.61;21.31;101284.38;107972;1269;61526;-93
2023/05/17 06:54:00;;;;;;;8.50;4.70;;;;;;;30.73;21.17;101277.29;107101;1268;61095;-95
2023/05/17 06:56:51;;;;;;;5.30;3.20;;;;;;;30.90;21.31;101284.42;107726;1263;73184;-96
2023/05/17 07:43:11;;;;;;;6.20;1.30;;;;;;;32.87;19.43;101273.84;107639;1276;59358;-96
2023/05/17 08:05:43;;;;;;;4.60;1.20;;;;;;;33.96;18.51;101270.90;103906;1273;61566;-96
2023/05/17 08:18:53;;;;;;;1.30;0.90;;;;;;;34.07;18.03;101270.41;104495;1273;73159;-93
2023/05/17 08:32:22;;;;;;;4.10;0.90;;;;;;;33.80;18.61;101265.95;107945;1269;61139;-95
2023/05/17 08:35:13;;;;;;;3.70;1.60;;;;;;;33.93;18.16;101267.98;107901;1275;73675;-95
2023/05/17 08:38:21;;;;;;;2.60;1.10;;;;;;;33.98;18.50;101262.61;107478;1277;64596;-93
2023/05/17 08:40:55;;;;;;;2.60;1.10;;;;;;;34.06;18.00;101269.23;108431;1268;75066;-95
2023/05/17 08:55:31;;;;;;;3.60;1.60;;;;;;;34.25;17.85;101260.10;106992;1282;615642;-95
2023/05/17 08:58:57;;;;;;;4.90;1.10;;;;;;;33.98;18.60;101253.58;104580;1269;5107519;-94
2023/05/17 09:02:00;;;;;;;4.50;1.50;;;;;;;33.64;18.88;101248.58;108639;1266;61143;-95
2023/05/17 09:04:54;;;;;;;3.80;1.40;;;;;;;33.38;19.24;101248.27;109080;1258;73313;-95
2023/05/17 09:08:05;;;;;;;8.20;4.60;;;;;;;33.21;19.59;101247.29;109113;1256;65692;-96
2023/05/17 09:10:58;;;;;;;2.90;1.30;;;;;;;33.18;19.59;101243.98;108576;1267;73219;-96
2023/05/17 09:13:51;;;;;;;10.60;1.10;;;;;;;33.28;19.35;101245.96;109013;1262;60897;-94
2023/05/17 09:16:42;;;;;;;;;;;;;;;;;;;;;
2023/05/17 09:23:42;;;;;;;3.60;1.40;;;;;;;33.19;18.56;101233.35;108155;1267;63682;-95
2023/05/17 09:26:52;;;;;;;4.20;1.20;;;;;;;33.00;18.32;101225.34;108144;1270;74228;-96
2023/05/17 09:29:33;;;;;;;1.90;1.20;;;;;;;33.02;18.67;101227.95;107733;1268;59742;-94
2023/05/17 09:43:28;;;;;;;2.80;1.10;;;;;;;33.77;18.13;101230.45;105656;1264;71613;31
2023/05/17 09:46:24;;;;;;;10.70;1.70;;;;;;;33.64;17.88;101221.88;107854;1270;61198;31
2023/05/17 10:16:38;;;;;;;50.70;45.80;;;;;;;34.75;16.28;101214.06;106665;1280;613444;31
2023/05/17 10:32:52;;;;;;;5.00;0.70;;;;;;;33.99;18.27;101194.47;106344;1277;73115;-96
2023/05/17 10:48:10;;;;;;;4.30;0.70;;;;;;;33.11;19.11;101193.02;98573;1286;984407;-96
2023/05/17 11:03:40;;;;;;;0.80;0.70;;;;;;;32.62;19.96;101183.41;85415;1293;73424;-94
2023/05/17 12:39:22;;;;;;;3.50;1.50;;;;;;;26.52;27.16;101080.88;97747;1276;996572;31
2023/05/17 13:23:06;;;;;;;4.90;2.90;;;;;;;24.99;29.72;101057.10;105575;1279;71866;-93
2023/05/17 13:33:16;;;;;;;4.40;1.70;;;;;;;24.67;30.64;101055.17;94437;1277;985225;31
2023/05/17 13:36:05;;;;;;;4.90;1.80;;;;;;;24.58;30.42;101059.32;106759;1279;59323;-94
2023/05/17 14:57:35;;;;;;;5.10;1.70;;;;;;;23.61;30.40;101026.48;104722;1279;59305;31
2023/05/17 15:00:25;;;;;;;2.20;1.40;;;;;;;23.60;30.60;101028.02;106885;1278;74955;-96
2023/05/17 15:03:17;;;;;;;3.50;1.60;;;;;;;23.59;31.05;101023.80;106652;1283;63347;-95
2023/05/17 15:06:25;;;;;;;4.50;2.10;;;;;;;23.59;31.12;101021.73;107290;1277;75362;-96
2023/05/17 15:09:02;;;;;;;6.10;1.70;;;;;;;23.58;31.20;101022.90;107101;1270;60287;31
2023/05/17 15:11:59;;;;;;;2.30;1.90;;;;;;;23.56;31.36;101018.95;107304;1273;62333;-95
2023/05/17 15:14:56;;;;;;;2.90;1.60;;;;;;;23.55;31.42;101020.16;107625;1270;71981;-96
2023/05/17 15:18:07;;;;;;;3.90;1.20;;;;;;;23.54;31.58;101022.10;107601;1271;64238;-92
2023/05/17 15:35:50;;;;;;;3.40;1.30;;;;;;;23.34;33.03;101007.42;108430;1274;62388;-91
2023/05/17 15:39:02;;;;;;;4.40;1.70;;;;;;;23.32;32.83;101010.88;107933;1274;71327;-96
2023/05/17 15:41:42;;;;;;;4.10;1.80;;;;;;;23.30;32.98;101010.36;108010;1268;60461;-94
2023/05/17 16:06:46;;;;;;;5.60;2.60;;;;;;;23.07;32.19;101011.61;99610;1268;63963;31
2023/05/17 19:11:39;;;;;;;33.80;22.00;;;;;;;18.23;67.48;101065.30;108921;1260;60873;31
2023/05/17 19:42:19;;;;;;;13.00;5.20;;;;;;;16.76;74.11;101060.06;111078;1238;59379;31
2023/05/17 19:48:06;;;;;;;15.20;5.30;;;;;;;16.57;75.13;101059.85;111283;1241;73452;-95
2023/05/17 20:11:46;;;;;;;15.70;6.30;;;;;;;15.91;79.68;101065.75;111145;1241;71927;31
2023/05/17 20:15:11;;;;;;;;;;;;;;;;;;;;;
2023/05/17 20:52:37;;;;;;;16.50;6.30;;;;;;;15.07;86.62;101066.07;111197;1237;59277;31
2023/05/17 20:55:43;;;;;;;10.80;5.10;;;;;;;14.98;87.62;101066.08;112177;1235;71880;-95
2023/05/17 21:15:16;;;;;;;14.60;5.60;;;;;;;15.04;87.93;101068.57;108615;1257;984035;-96
2023/05/17 21:17:48;;;;;;;15.40;5.30;;;;;;;14.99;87.86;101067.55;112743;1235;59209;-89
2023/05/17 21:21:00;;;;;;;11.70;5.70;;;;;;;14.92;87.80;101066.09;112338;1235;72144;-89
2023/05/17 21:24:50;;;;;;;12.80;6.10;;;;;;;14.87;87.84;101066.63;106363;1283;600223;31
2023/05/17 21:27:23;;;;;;;10.20;5.60;;;;;;;14.81;87.85;101065.86;107920;1271;61129;-95
2023/05/17 21:29:51;;;;;;;17.70;5.90;;;;;;;14.76;87.93;101065.86;108474;1272;61186;-96
2023/05/17 21:32:36;;;;;;;12.60;5.90;;;;;;;14.69;87.79;101063.31;108023;1263;73040;31
2023/05/17 21:41:56;;;;;;;24.00;6.60;;;;;;;14.41;88.91;101061.91;108391;1262;60731;-96
2023/05/17 21:44:49;;;;;;;24.40;6.20;;;;;;;14.36;89.46;101064.20;109202;1256;61144;-95
2023/05/17 21:47:43;;;;;;;17.10;6.40;;;;;;;14.33;89.87;101062.30;88962;1261;71028;-95
2023/05/17 21:50:35;;;;;;;14.30;6.60;;;;;;;14.30;90.18;101060.14;108920;1258;65432;-96
2023/05/17 21:53:07;;;;;;;11.80;6.30;;;;;;;14.29;90.27;101063.77;108923;1260;73455;-96
2023/05/17 21:55:36;;;;;;;15.70;6.40;;;;;;;14.28;90.42;101061.59;109160;1259;58449;-96
2023/05/17 22:02:00;;;;;;;10.50;6.40;;;;;;;14.24;90.63;101054.13;108708;1267;74240;-95
2023/05/17 22:08:13;;;;;;;18.00;7.40;;;;;;;14.14;90.91;101053.71;85580;1272;71997;31
2023/05/17 22:10:55;;;;;;;10.50;5.60;;;;;;;14.07;91.35;101051.20;108030;1270;62824;-96
2023/05/17 22:13:53;;;;;;;13.70;5.90;;;;;;;14.03;91.80;101050.61;108149;1270;59275;-96
2023/05/17 22:16:40;;;;;;;9.40;5.90;;;;;;;14.03;92.46;101052.55;107775;1270;72326;-96
2023/05/17 22:19:07;;;;;;;10.10;6.50;;;;;;;14.01;92.89;101053.75;107438;1270;64804;-95
2023/05/17 22:21:36;;;;;;;10.20;7.00;;;;;;;13.99;93.08;101050.89;107724;1270;71623;-96
2023/05/17 22:24:14;;;;;;;16.80;6.70;;;;;;;13.95;93.34;101052.90;107692;1270;59669;-96
2023/05/17 22:26:42;;;;;;;24.90;7.40;;;;;;;13.89;93.58;101048.88;107192;1270;61214;-96
2023/05/17 22:29:12;;;;;;;13.00;7.20;;;;;;;13.88;93.79;101050.20;107133;1270;73702;-94
2023/05/17 22:31:46;;;;;;;11.10;5.90;;;;;;;13.82;94.06;101046.70;107005;1275;64771;-95
2023/05/17 22:34:17;;;;;;;14.00;7.50;;;;;;;13.79;94.50;101050.63;106743;1276;75072;-94
2023/05/17 22:36:46;;;;;;;15.10;7.10;;;;;;;13.74;94.91;101051.30;107082;1275;62430;-95
2023/05/17 22:39:19;;;;;;;12.80;7.00;;;;;;;13.70;95.21;101051.73;107311;1270;62486;-95
2023/05/17 22:41:49;;;;;;;14.50;7.10;;;;;;;13.67;95.65;101051.77;108345;1272;74052;-96
2023/05/17 22:44:36;;;;;;;16.90;7.70;;;;;;;13.64;96.07;101051.45;108609;1261;65045;-95
2023/05/17 22:47:04;;;;;;;11.40;6.90;;;;;;;13.61;96.07;101050.44;108677;1267;73807;-95
2023/05/17 22:49:36;;;;;;;16.70;7.60;;;;;;;13.57;95.58;101049.23;108263;1271;61481;-96
2023/05/17 22:52:06;;;;;;;14.20;6.70;;;;;;;13.53;95.09;101050.57;108247;1271;61239;-95
2023/05/17 22:54:38;;;;;;;15.80;8.00;;;;;;;13.47;94.85;101048.64;108529;1271;73818;-94
2023/05/17 22:57:09;;;;;;;13.80;7.40;;;;;;;13.43;94.78;101048.02;107830;1271;64804;-96
2023/05/17 22:59:37;;;;;;;13.90;7.80;;;;;;;13.39;94.77;101045.16;107074;1270;73803;-96
2023/05/17 23:02:05;;;;;;;20.60;11.50;;;;;;;13.37;94.81;101052.00;107098;1271;63719;-96
2023/05/17 23:04:38;;;;;;;16.70;11.80;;;;;;;13.35;94.91;101051.75;106526;1270;61267;-96
2023/05/17 23:07:08;;;;;;;18.70;11.40;;;;;;;13.34;94.99;101051.48;106144;1271;74901;-94
2023/05/17 23:09:39;;;;;;;17.40;10.80;;;;;;;13.34;94.97;101055.86;106000;1271;62390;-96
2023/05/17 23:12:12;;;;;;;19.30;12.10;;;;;;;13.32;94.92;101052.63;106294;1270;73820;-96
2023/05/17 23:14:46;;;;;;;22.00;10.90;;;;;;;13.27;94.89;101050.86;106333;1275;61056;-96
2023/05/17 23:17:14;;;;;;;22.00;10.80;;;;;;;13.25;94.96;101053.55;106235;1271;59662;-96
2023/05/17 23:19:55;;;;;;;14.60;9.50;;;;;;;13.18;95.20;101047.91;107134;1267;72448;-95
2023/05/17 23:22:23;;;;;;;14.70;10.20;;;;;;;13.15;95.58;101054.76;108314;1267;64883;-95
2023/05/17 23:24:52;;;;;;;15.70;9.30;;;;;;;13.14;95.97;101057.46;108699;1267;73791;-95
2023/05/17 23:27:38;;;;;;;14.10;9.70;;;;;;;13.13;96.26;101058.58;108728;1267;58330;-96
2023/05/17 23:30:23;;;;;;;17.70;11.30;;;;;;;13.13;96.49;101058.77;106933;1267;59747;-96
2023/05/17 23:33:18;;;;;;;22.90;14.70;;;;;;;13.12;96.44;101050.91;106699;1267;73093;-95
2023/05/17 23:35:49;;;;;;;21.80;15.70;;;;;;;13.12;96.29;101057.55;107070;1264;65203;-94
2023/05/17 23:38:27;;;;;;;21.80;12.60;;;;;;;13.09;96.28;101058.82;108743;1267;75133;-96
2023/05/17 23:41:16;;;;;;;18.00;12.30;;;;;;;13.06;96.43;101060.06;108759;1265;62956;-96
2023/05/17 23:44:11;;;;;;;16.10;11.00;;;;;;;13.01;96.50;101061.60;108727;1264;61385;-96
2023/05/17 23:46:43;;;;;;;15.60;10.10;;;;;;;12.96;97.02;101061.04;108612;1264;74013;-96
2023/05/17 23:56:20;;;;;;;13.80;10.10;;;;;;;12.88;97.36;101061.40;108133;1261;61338;-93
